sensor_id;sensor_type;location;lat;lon;timestamp;temperature;humidity
20147;DHT22;10234;50.856;15.716;2023-02-28T00:01:06;-4.10;99.90
20147;DHT22;10234;50.856;15.716;2023-02-28T00:06:01;-4.20;99.90
20147;DHT22;10234;50.856;15.716;2023-02-28T00:13:23;-3.60;99.90
20147;DHT22;10234;50.856;15.716;2023-02-28T00:15:58;-4.30;99.90
20147;DHT22;10234;50.856;15.716;2023-02-28T00:18:27;-4.40;99.90
20147;DHT22;10234;50.856;15.716;2023-02-28T00:20:54;-4.30;99.90
20147;DHT22;10234;50.856;15.716;2023-02-28T00:23:20;-4.50;99.90
20147;DHT22;10234;50.856;15.716;2023-02-28T00:25:47;-4.60;99.90
20147;DHT22;10234;50.856;15.716;2023-02-28T00:28:14;-4.70;99.90
20147;DHT22;10234;50.856;15.716;2023-02-28T00:30:41;-4.70;99.90
20147;DHT22;10234;50.856;15.716;2023-02-28T00:35:37;-4.80;99.90
20147;DHT22;10234;50.856;15.716;2023-02-28T00:38:04;-5.00;99.90
20147;DHT22;10234;50.856;15.716;2023-02-28T00:42:58;-5.00;99.90
20147;DHT22;10234;50.856;15.716;2023-02-28T00:45:25;-5.20;99.90
20147;DHT22;10234;50.856;15.716;2023-02-28T00:50:19;-5.10;99.90
20147;DHT22;10234;50.856;15.716;2023-02-28T00:52:48;-5.00;99.90
20147;DHT22;10234;50.856;15.716;2023-02-28T00:55:15;-5.20;99.90
20147;DHT22;10234;50.856;15.716;2023-02-28T01:00:10;-5.00;99.90
20147;DHT22;10234;50.856;15.716;2023-02-28T01:02:37;-4.80;99.90
20147;DHT22;10234;50.856;15.716;2023-02-28T01:05:05;-4.80;99.90
20147;DHT22;10234;50.856;15.716;2023-02-28T01:10:00;-4.70;99.90
20147;DHT22;10234;50.856;15.716;2023-02-28T01:12:27;-4.70;99.90
20147;DHT22;10234;50.856;15.716;2023-02-28T01:14:54;-4.60;99.90
20147;DHT22;10234;50.856;15.716;2023-02-28T01:27:10;-4.40;99.90
20147;DHT22;10234;50.856;15.716;2023-02-28T01:29:37;-4.30;99.90
20147;DHT22;10234;50.856;15.716;2023-02-28T01:32:04;-4.50;99.90
20147;DHT22;10234;50.856;15.716;2023-02-28T01:34:31;-4.50;99.90
20147;DHT22;10234;50.856;15.716;2023-02-28T01:36:58;-3.30;99.90
20147;DHT22;10234;50.856;15.716;2023-02-28T01:39:25;-4.30;99.90
20147;DHT22;10234;50.856;15.716;2023-02-28T01:47:26;-0.80;99.90
20147;DHT22;10234;50.856;15.716;2023-02-28T01:49:53;-4.20;99.90
20147;DHT22;10234;50.856;15.716;2023-02-28T01:52:21;-4.20;99.90
20147;DHT22;10234;50.856;15.716;2023-02-28T01:54:52;-4.20;99.90
20147;DHT22;10234;50.856;15.716;2023-02-28T01:57:23;-4.10;99.90
20147;DHT22;10234;50.856;15.716;2023-02-28T01:59:55;-4.20;99.90
20147;DHT22;10234;50.856;15.716;2023-02-28T02:02:26;-4.10;99.90
20147;DHT22;10234;50.856;15.716;2023-02-28T02:04:58;-4.00;99.90
20147;DHT22;10234;50.856;15.716;2023-02-28T02:07:29;-4.40;99.90
20147;DHT22;10234;50.856;15.716;2023-02-28T02:10:02;-3.90;99.90
20147;DHT22;10234;50.856;15.716;2023-02-28T02:12:42;-4.00;99.90
20147;DHT22;10234;50.856;15.716;2023-02-28T02:15:15;-4.00;99.90
20147;DHT22;10234;50.856;15.716;2023-02-28T02:17:46;-4.00;99.90
20147;DHT22;10234;50.856;15.716;2023-02-28T02:20:59;-4.00;99.90
20147;DHT22;10234;50.856;15.716;2023-02-28T02:24:09;-3.90;99.90
20147;DHT22;10234;50.856;15.716;2023-02-28T02:26:55;-3.90;99.90
20147;DHT22;10234;50.856;15.716;2023-02-28T02:35:43;-4.50;99.90
20147;DHT22;10234;50.856;15.716;2023-02-28T02:38:17;-3.80;99.90
20147;DHT22;10234;50.856;15.716;2023-02-28T02:40:51;-3.80;99.90
20147;DHT22;10234;50.856;15.716;2023-02-28T02:43:26;-3.80;99.90
20147;DHT22;10234;50.856;15.716;2023-02-28T02:45:57;-3.80;99.90
20147;DHT22;10234;50.856;15.716;2023-02-28T02:48:29;-3.70;99.90
20147;DHT22;10234;50.856;15.716;2023-02-28T02:51:00;-3.70;99.90
20147;DHT22;10234;50.856;15.716;2023-02-28T02:53:32;-3.80;99.90
20147;DHT22;10234;50.856;15.716;2023-02-28T02:55:59;-3.70;99.90
20147;DHT22;10234;50.856;15.716;2023-02-28T02:58:31;-3.70;99.90
20147;DHT22;10234;50.856;15.716;2023-02-28T03:01:02;-3.70;99.90
20147;DHT22;10234;50.856;15.716;2023-02-28T03:03:31;-3.70;99.90
20147;DHT22;10234;50.856;15.716;2023-02-28T03:06:01;-3.70;99.90
20147;DHT22;10234;50.856;15.716;2023-02-28T03:08:32;-3.70;99.90
20147;DHT22;10234;50.856;15.716;2023-02-28T03:11:01;-3.80;99.90
20147;DHT22;10234;50.856;15.716;2023-02-28T03:13:52;-3.60;99.90
20147;DHT22;10234;50.856;15.716;2023-02-28T03:16:32;-3.40;99.90
20147;DHT22;10234;50.856;15.716;2023-02-28T03:19:18;-3.70;99.90
20147;DHT22;10234;50.856;15.716;2023-02-28T03:21:59;-3.70;99.90
20147;DHT22;10234;50.856;15.716;2023-02-28T03:24:33;-3.90;99.90
20147;DHT22;10234;50.856;15.716;2023-02-28T03:27:07;-3.60;99.90
20147;DHT22;10234;50.856;15.716;2023-02-28T03:29:39;-3.70;99.90
20147;DHT22;10234;50.856;15.716;2023-02-28T03:32:12;-3.70;99.90
20147;DHT22;10234;50.856;15.716;2023-02-28T03:34:48;-3.60;99.90
20147;DHT22;10234;50.856;15.716;2023-02-28T03:37:20;-3.70;99.90
20147;DHT22;10234;50.856;15.716;2023-02-28T03:39:53;-3.70;99.90
20147;DHT22;10234;50.856;15.716;2023-02-28T03:42:23;-4.00;99.90
20147;DHT22;10234;50.856;15.716;2023-02-28T03:44:54;-4.60;99.90
20147;DHT22;10234;50.856;15.716;2023-02-28T03:47:25;-3.40;99.90
20147;DHT22;10234;50.856;15.716;2023-02-28T03:49:55;-3.60;99.90
20147;DHT22;10234;50.856;15.716;2023-02-28T03:52:30;-3.60;99.90
20147;DHT22;10234;50.856;15.716;2023-02-28T03:55:00;-3.60;99.90
20147;DHT22;10234;50.856;15.716;2023-02-28T03:57:35;-3.40;99.90
20147;DHT22;10234;50.856;15.716;2023-02-28T04:00:07;-3.60;99.90
20147;DHT22;10234;50.856;15.716;2023-02-28T04:02:35;-3.60;99.90
20147;DHT22;10234;50.856;15.716;2023-02-28T04:05:02;-3.50;99.90
20147;DHT22;10234;50.856;15.716;2023-02-28T04:07:30;-3.60;99.90
20147;DHT22;10234;50.856;15.716;2023-02-28T04:09:58;-3.50;99.90
20147;DHT22;10234;50.856;15.716;2023-02-28T04:12:25;-3.50;99.90
20147;DHT22;10234;50.856;15.716;2023-02-28T04:14:51;-3.60;99.90
20147;DHT22;10234;50.856;15.716;2023-02-28T04:17:18;-3.50;99.90
20147;DHT22;10234;50.856;15.716;2023-02-28T04:19:45;-3.60;99.90
20147;DHT22;10234;50.856;15.716;2023-02-28T04:22:15;-3.70;99.90
20147;DHT22;10234;50.856;15.716;2023-02-28T04:24:44;-3.40;99.90
20147;DHT22;10234;50.856;15.716;2023-02-28T04:27:11;-3.40;99.90
20147;DHT22;10234;50.856;15.716;2023-02-28T04:29:38;-3.40;99.90
20147;DHT22;10234;50.856;15.716;2023-02-28T04:32:05;-2.60;99.90
20147;DHT22;10234;50.856;15.716;2023-02-28T04:37:01;-3.50;99.90
20147;DHT22;10234;50.856;15.716;2023-02-28T04:39:28;-2.50;99.90
20147;DHT22;10234;50.856;15.716;2023-02-28T04:41:56;-3.50;99.90
20147;DHT22;10234;50.856;15.716;2023-02-28T04:44:23;-3.40;99.90
20147;DHT22;10234;50.856;15.716;2023-02-28T04:46:50;-3.70;99.90
20147;DHT22;10234;50.856;15.716;2023-02-28T04:56:38;-3.50;99.90
20147;DHT22;10234;50.856;15.716;2023-02-28T04:59:07;-3.40;99.90
20147;DHT22;10234;50.856;15.716;2023-02-28T05:01:34;-3.50;99.90
20147;DHT22;10234;50.856;15.716;2023-02-28T05:04:03;-3.50;99.90
20147;DHT22;10234;50.856;15.716;2023-02-28T05:06:33;-3.50;99.90
20147;DHT22;10234;50.856;15.716;2023-02-28T05:09:00;-3.50;99.90
20147;DHT22;10234;50.856;15.716;2023-02-28T05:11:29;-3.50;99.90
20147;DHT22;10234;50.856;15.716;2023-02-28T05:16:29;-3.60;99.90
20147;DHT22;10234;50.856;15.716;2023-02-28T05:18:56;-3.70;99.90
20147;DHT22;10234;50.856;15.716;2023-02-28T05:21:25;-3.50;99.90
20147;DHT22;10234;50.856;15.716;2023-02-28T05:23:55;-3.50;99.90
20147;DHT22;10234;50.856;15.716;2023-02-28T05:26:23;-3.40;99.90
20147;DHT22;10234;50.856;15.716;2023-02-28T05:31:17;-3.40;99.90
20147;DHT22;10234;50.856;15.716;2023-02-28T05:33:45;-3.50;99.90
20147;DHT22;10234;50.856;15.716;2023-02-28T05:36:12;-3.40;99.90
20147;DHT22;10234;50.856;15.716;2023-02-28T05:38:40;-3.60;99.90
20147;DHT22;10234;50.856;15.716;2023-02-28T05:41:10;-3.50;99.90
20147;DHT22;10234;50.856;15.716;2023-02-28T05:43:37;-3.60;99.90
20147;DHT22;10234;50.856;15.716;2023-02-28T05:46:05;-3.70;99.90
20147;DHT22;10234;50.856;15.716;2023-02-28T05:48:32;-3.50;99.90
20147;DHT22;10234;50.856;15.716;2023-02-28T05:51:01;-3.50;99.90
20147;DHT22;10234;50.856;15.716;2023-02-28T05:53:29;-3.40;99.90
20147;DHT22;10234;50.856;15.716;2023-02-28T05:55:56;-3.10;99.90
20147;DHT22;10234;50.856;15.716;2023-02-28T05:58:24;-3.40;99.90
20147;DHT22;10234;50.856;15.716;2023-02-28T06:00:54;-3.30;99.90
20147;DHT22;10234;50.856;15.716;2023-02-28T06:08:17;-3.20;99.90
20147;DHT22;10234;50.856;15.716;2023-02-28T06:13:12;-3.30;99.90
20147;DHT22;10234;50.856;15.716;2023-02-28T06:15:39;-3.10;99.90
20147;DHT22;10234;50.856;15.716;2023-02-28T06:20:33;-3.10;99.90
20147;DHT22;10234;50.856;15.716;2023-02-28T06:23:00;-3.20;99.90
20147;DHT22;10234;50.856;15.716;2023-02-28T06:25:28;-3.10;99.90
20147;DHT22;10234;50.856;15.716;2023-02-28T06:30:22;-3.00;99.90
20147;DHT22;10234;50.856;15.716;2023-02-28T06:32:52;-3.00;99.90
20147;DHT22;10234;50.856;15.716;2023-02-28T06:37:46;-2.70;99.90
20147;DHT22;10234;50.856;15.716;2023-02-28T06:40:14;-2.80;99.90
20147;DHT22;10234;50.856;15.716;2023-02-28T06:42:42;-1.90;99.90
20147;DHT22;10234;50.856;15.716;2023-02-28T06:45:10;-2.40;99.90
20147;DHT22;10234;50.856;15.716;2023-02-28T06:47:37;-2.40;99.90
20147;DHT22;10234;50.856;15.716;2023-02-28T06:50:05;-1.90;99.90
20147;DHT22;10234;50.856;15.716;2023-02-28T06:52:32;-1.60;99.90
20147;DHT22;10234;50.856;15.716;2023-02-28T06:55:01;-1.80;99.90
20147;DHT22;10234;50.856;15.716;2023-02-28T06:57:29;-1.50;99.90
20147;DHT22;10234;50.856;15.716;2023-02-28T06:59:59;-1.50;99.90
20147;DHT22;10234;50.856;15.716;2023-02-28T07:02:26;-1.30;99.90
20147;DHT22;10234;50.856;15.716;2023-02-28T07:07:21;-1.20;99.90
20147;DHT22;10234;50.856;15.716;2023-02-28T07:09:47;-0.90;99.90
20147;DHT22;10234;50.856;15.716;2023-02-28T07:12:14;-1.00;99.90
20147;DHT22;10234;50.856;15.716;2023-02-28T07:17:10;-0.60;99.90
20147;DHT22;10234;50.856;15.716;2023-02-28T07:19:37;-0.60;99.90
20147;DHT22;10234;50.856;15.716;2023-02-28T07:31:53;1.50;99.90
20147;DHT22;10234;50.856;15.716;2023-02-28T07:34:22;2.40;99.90
20147;DHT22;10234;50.856;15.716;2023-02-28T07:41:46;3.20;99.90
20147;DHT22;10234;50.856;15.716;2023-02-28T07:51:35;3.20;96.90
20147;DHT22;10234;50.856;15.716;2023-02-28T07:54:02;3.90;94.20
20147;DHT22;10234;50.856;15.716;2023-02-28T07:56:29;4.50;94.00
20147;DHT22;10234;50.856;15.716;2023-02-28T08:03:50;4.80;77.70
20147;DHT22;10234;50.856;15.716;2023-02-28T08:06:19;6.10;78.80
20147;DHT22;10234;50.856;15.716;2023-02-28T08:08:47;6.70;73.00
20147;DHT22;10234;50.856;15.716;2023-02-28T08:11:15;8.60;81.50
20147;DHT22;10234;50.856;15.716;2023-02-28T08:16:10;11.80;59.50
20147;DHT22;10234;50.856;15.716;2023-02-28T08:26:06;10.30;57.40
20147;DHT22;10234;50.856;15.716;2023-02-28T08:31:01;13.10;54.10
20147;DHT22;10234;50.856;15.716;2023-02-28T08:36:00;15.20;58.50
20147;DHT22;10234;50.856;15.716;2023-02-28T08:40:58;14.70;45.80
20147;DHT22;10234;50.856;15.716;2023-02-28T08:43:27;13.30;47.90
20147;DHT22;10234;50.856;15.716;2023-02-28T08:45:55;11.80;48.00
20147;DHT22;10234;50.856;15.716;2023-02-28T08:50:55;8.40;52.00
20147;DHT22;10234;50.856;15.716;2023-02-28T08:55:56;7.10;55.00
20147;DHT22;10234;50.856;15.716;2023-02-28T09:00:52;6.40;57.40
20147;DHT22;10234;50.856;15.716;2023-02-28T09:03:19;5.70;73.60
20147;DHT22;10234;50.856;15.716;2023-02-28T09:05:53;5.40;67.50
20147;DHT22;10234;50.856;15.716;2023-02-28T09:18:10;4.50;62.10
20147;DHT22;10234;50.856;15.716;2023-02-28T09:20:38;4.60;74.30
20147;DHT22;10234;50.856;15.716;2023-02-28T09:23:05;4.60;65.50
20147;DHT22;10234;50.856;15.716;2023-02-28T09:30:26;4.20;65.00
20147;DHT22;10234;50.856;15.716;2023-02-28T09:32:54;4.50;65.30
20147;DHT22;10234;50.856;15.716;2023-02-28T09:35:23;5.20;64.10
20147;DHT22;10234;50.856;15.716;2023-02-28T09:40:20;7.90;58.40
20147;DHT22;10234;50.856;15.716;2023-02-28T09:42:50;9.90;55.50
20147;DHT22;10234;50.856;15.716;2023-02-28T09:45:22;10.50;52.60
20147;DHT22;10234;50.856;15.716;2023-02-28T09:47:53;12.20;50.70
20147;DHT22;10234;50.856;15.716;2023-02-28T09:50:29;13.20;49.40
20147;DHT22;10234;50.856;15.716;2023-02-28T09:52:59;14.60;60.80
20147;DHT22;10234;50.856;15.716;2023-02-28T09:55:30;14.90;47.60
20147;DHT22;10234;50.856;15.716;2023-02-28T10:00:30;15.80;44.00
20147;DHT22;10234;50.856;15.716;2023-02-28T10:03:17;15.70;42.90
20147;DHT22;10234;50.856;15.716;2023-02-28T10:05:52;15.60;42.80
20147;DHT22;10234;50.856;15.716;2023-02-28T10:08:25;15.60;45.00
20147;DHT22;10234;50.856;15.716;2023-02-28T10:10:55;15.90;41.50
20147;DHT22;10234;50.856;15.716;2023-02-28T10:13:27;14.40;44.10
20147;DHT22;10234;50.856;15.716;2023-02-28T10:16:01;15.50;52.70
20147;DHT22;10234;50.856;15.716;2023-02-28T10:18:33;15.60;44.60
20147;DHT22;10234;50.856;15.716;2023-02-28T10:21:05;16.30;45.00
20147;DHT22;10234;50.856;15.716;2023-02-28T10:23:35;16.60;45.00
20147;DHT22;10234;50.856;15.716;2023-02-28T10:26:09;17.20;41.60
20147;DHT22;10234;50.856;15.716;2023-02-28T10:31:04;16.40;40.80
20147;DHT22;10234;50.856;15.716;2023-02-28T10:33:33;15.40;43.60
20147;DHT22;10234;50.856;15.716;2023-02-28T10:36:01;16.40;41.60
20147;DHT22;10234;50.856;15.716;2023-02-28T10:38:34;16.10;41.30
20147;DHT22;10234;50.856;15.716;2023-02-28T10:41:07;15.60;44.20
20147;DHT22;10234;50.856;15.716;2023-02-28T10:43:37;16.00;55.50
20147;DHT22;10234;50.856;15.716;2023-02-28T10:46:12;16.40;43.40
20147;DHT22;10234;50.856;15.716;2023-02-28T10:48:42;16.10;43.80
20147;DHT22;10234;50.856;15.716;2023-02-28T10:51:11;17.40;52.70
20147;DHT22;10234;50.856;15.716;2023-02-28T10:53:47;16.40;40.80
20147;DHT22;10234;50.856;15.716;2023-02-28T10:56:17;16.20;41.50
20147;DHT22;10234;50.856;15.716;2023-02-28T10:58:51;16.00;44.00
20147;DHT22;10234;50.856;15.716;2023-02-28T11:01:19;14.00;42.60
20147;DHT22;10234;50.856;15.716;2023-02-28T11:03:48;14.80;45.50
20147;DHT22;10234;50.856;15.716;2023-02-28T11:06:19;15.90;44.10
20147;DHT22;10234;50.856;15.716;2023-02-28T11:08:51;16.50;42.40
20147;DHT22;10234;50.856;15.716;2023-02-28T11:11:19;16.10;40.50
20147;DHT22;10234;50.856;15.716;2023-02-28T11:13:47;15.90;42.10
20147;DHT22;10234;50.856;15.716;2023-02-28T11:16:16;15.50;42.50
20147;DHT22;10234;50.856;15.716;2023-02-28T11:18:48;15.60;43.80
20147;DHT22;10234;50.856;15.716;2023-02-28T11:21:18;14.80;42.10
20147;DHT22;10234;50.856;15.716;2023-02-28T11:23:49;14.80;45.10
20147;DHT22;10234;50.856;15.716;2023-02-28T11:26:35;15.10;52.20
20147;DHT22;10234;50.856;15.716;2023-02-28T11:29:10;14.80;44.00
20147;DHT22;10234;50.856;15.716;2023-02-28T11:34:24;14.70;44.00
20147;DHT22;10234;50.856;15.716;2023-02-28T11:36:57;14.60;44.70
20147;DHT22;10234;50.856;15.716;2023-02-28T11:39:27;13.80;44.50
20147;DHT22;10234;50.856;15.716;2023-02-28T11:42:07;12.40;51.00
20147;DHT22;10234;50.856;15.716;2023-02-28T11:44:48;11.50;47.20
20147;DHT22;10234;50.856;15.716;2023-02-28T11:47:29;11.00;61.40
20147;DHT22;10234;50.856;15.716;2023-02-28T11:50:16;10.30;49.50
20147;DHT22;10234;50.856;15.716;2023-02-28T11:52:50;10.10;64.00
20147;DHT22;10234;50.856;15.716;2023-02-28T11:55:24;9.90;63.60
20147;DHT22;10234;50.856;15.716;2023-02-28T11:58:15;9.80;62.00
20147;DHT22;10234;50.856;15.716;2023-02-28T12:01:01;9.90;51.60
20147;DHT22;10234;50.856;15.716;2023-02-28T12:03:39;9.20;51.30
20147;DHT22;10234;50.856;15.716;2023-02-28T12:06:18;10.00;53.30
20147;DHT22;10234;50.856;15.716;2023-02-28T12:09:00;10.40;52.50
20147;DHT22;10234;50.856;15.716;2023-02-28T12:11:39;10.50;61.60
20147;DHT22;10234;50.856;15.716;2023-02-28T12:14:31;10.30;65.00
20147;DHT22;10234;50.856;15.716;2023-02-28T12:17:15;10.00;58.90
20147;DHT22;10234;50.856;15.716;2023-02-28T12:19:47;9.30;65.20
20147;DHT22;10234;50.856;15.716;2023-02-28T12:22:26;8.80;52.40
20147;DHT22;10234;50.856;15.716;2023-02-28T12:25:30;8.20;66.40
20147;DHT22;10234;50.856;15.716;2023-02-28T12:28:04;8.90;55.00
20147;DHT22;10234;50.856;15.716;2023-02-28T12:30:33;9.00;69.20
20147;DHT22;10234;50.856;15.716;2023-02-28T12:33:05;9.00;52.70
20147;DHT22;10234;50.856;15.716;2023-02-28T12:35:36;8.90;52.60
20147;DHT22;10234;50.856;15.716;2023-02-28T12:38:07;9.20;52.50
20147;DHT22;10234;50.856;15.716;2023-02-28T12:40:44;9.40;66.80
20147;DHT22;10234;50.856;15.716;2023-02-28T12:43:15;9.80;63.90
20147;DHT22;10234;50.856;15.716;2023-02-28T12:45:45;9.60;66.50
20147;DHT22;10234;50.856;15.716;2023-02-28T12:48:18;9.80;66.60
20147;DHT22;10234;50.856;15.716;2023-02-28T12:50:47;9.00;53.60
20147;DHT22;10234;50.856;15.716;2023-02-28T12:53:19;8.30;55.10
20147;DHT22;10234;50.856;15.716;2023-02-28T12:55:52;7.50;56.60
20147;DHT22;10234;50.856;15.716;2023-02-28T12:58:30;6.80;58.70
20147;DHT22;10234;50.856;15.716;2023-02-28T13:01:33;6.10;76.80
20147;DHT22;10234;50.856;15.716;2023-02-28T13:07:32;5.30;80.70
20147;DHT22;10234;50.856;15.716;2023-02-28T13:10:04;5.30;63.90
20147;DHT22;10234;50.856;15.716;2023-02-28T13:12:32;5.10;75.80
20147;DHT22;10234;50.856;15.716;2023-02-28T13:15:08;4.90;62.40
20147;DHT22;10234;50.856;15.716;2023-02-28T13:17:39;4.80;63.50
20147;DHT22;10234;50.856;15.716;2023-02-28T13:20:16;4.90;79.60
20147;DHT22;10234;50.856;15.716;2023-02-28T13:22:45;4.80;78.60
20147;DHT22;10234;50.856;15.716;2023-02-28T13:34:42;4.60;66.50
20147;DHT22;10234;50.856;15.716;2023-02-28T13:37:41;4.20;66.00
20147;DHT22;10234;50.856;15.716;2023-02-28T13:40:31;4.20;65.90
20147;DHT22;10234;50.856;15.716;2023-02-28T13:45:30;3.80;78.70
20147;DHT22;10234;50.856;15.716;2023-02-28T13:48:04;3.60;84.20
20147;DHT22;10234;50.856;15.716;2023-02-28T13:50:35;3.60;69.60
20147;DHT22;10234;50.856;15.716;2023-02-28T13:53:28;3.70;68.80
20147;DHT22;10234;50.856;15.716;2023-02-28T13:56:03;3.60;69.20
20147;DHT22;10234;50.856;15.716;2023-02-28T13:58:43;3.90;84.20
20147;DHT22;10234;50.856;15.716;2023-02-28T14:01:29;4.00;76.80
20147;DHT22;10234;50.856;15.716;2023-02-28T14:07:02;3.10;86.00
20147;DHT22;10234;50.856;15.716;2023-02-28T14:09:32;3.30;86.40
20147;DHT22;10234;50.856;15.716;2023-02-28T14:15:01;3.20;72.60
20147;DHT22;10234;50.856;15.716;2023-02-28T14:17:28;3.10;79.00
20147;DHT22;10234;50.856;15.716;2023-02-28T14:19:57;3.10;87.40
20147;DHT22;10234;50.856;15.716;2023-02-28T14:22:48;3.10;90.30
20147;DHT22;10234;50.856;15.716;2023-02-28T14:25:24;3.00;91.50
20147;DHT22;10234;50.856;15.716;2023-02-28T14:28:04;2.90;75.00
20147;DHT22;10234;50.856;15.716;2023-02-28T14:30:50;3.10;92.60
20147;DHT22;10234;50.856;15.716;2023-02-28T14:33:23;2.70;81.60
20147;DHT22;10234;50.856;15.716;2023-02-28T14:36:03;2.60;82.80
20147;DHT22;10234;50.856;15.716;2023-02-28T14:38:36;2.40;91.80
20147;DHT22;10234;50.856;15.716;2023-02-28T14:41:06;2.30;94.80
20147;DHT22;10234;50.856;15.716;2023-02-28T14:43:48;2.10;93.80
20147;DHT22;10234;50.856;15.716;2023-02-28T14:46:17;2.10;99.90
20147;DHT22;10234;50.856;15.716;2023-02-28T14:48:45;1.90;99.90
20147;DHT22;10234;50.856;15.716;2023-02-28T14:51:18;2.20;99.90
20147;DHT22;10234;50.856;15.716;2023-02-28T14:53:50;1.50;99.90
20147;DHT22;10234;50.856;15.716;2023-02-28T14:56:23;1.30;98.20
20147;DHT22;10234;50.856;15.716;2023-02-28T14:58:54;1.90;98.70
20147;DHT22;10234;50.856;15.716;2023-02-28T15:01:23;2.00;99.90
20147;DHT22;10234;50.856;15.716;2023-02-28T15:03:58;1.70;98.90
20147;DHT22;10234;50.856;15.716;2023-02-28T15:09:17;1.60;99.90
20147;DHT22;10234;50.856;15.716;2023-02-28T15:11:47;1.50;99.90
20147;DHT22;10234;50.856;15.716;2023-02-28T15:14:19;1.50;99.90
20147;DHT22;10234;50.856;15.716;2023-02-28T15:16:52;1.30;99.90
20147;DHT22;10234;50.856;15.716;2023-02-28T15:19:24;1.40;99.90
20147;DHT22;10234;50.856;15.716;2023-02-28T15:21:54;1.30;99.90
20147;DHT22;10234;50.856;15.716;2023-02-28T15:24:30;1.30;99.90
20147;DHT22;10234;50.856;15.716;2023-02-28T15:27:03;1.20;99.90
20147;DHT22;10234;50.856;15.716;2023-02-28T15:29:36;1.30;99.90
20147;DHT22;10234;50.856;15.716;2023-02-28T15:32:27;-0.30;99.90
20147;DHT22;10234;50.856;15.716;2023-02-28T15:34:55;0.90;99.90
20147;DHT22;10234;50.856;15.716;2023-02-28T15:37:28;1.00;99.90
20147;DHT22;10234;50.856;15.716;2023-02-28T15:40:03;0.90;99.90
20147;DHT22;10234;50.856;15.716;2023-02-28T15:42:31;1.50;99.90
20147;DHT22;10234;50.856;15.716;2023-02-28T15:47:27;0.80;99.90
20147;DHT22;10234;50.856;15.716;2023-02-28T15:49:58;0.50;99.90
20147;DHT22;10234;50.856;15.716;2023-02-28T15:52:29;0.50;99.90
20147;DHT22;10234;50.856;15.716;2023-02-28T15:54:59;0.60;99.90
20147;DHT22;10234;50.856;15.716;2023-02-28T15:57:34;0.50;99.90
20147;DHT22;10234;50.856;15.716;2023-02-28T16:00:02;0.40;99.90
20147;DHT22;10234;50.856;15.716;2023-02-28T16:02:32;0.40;99.90
20147;DHT22;10234;50.856;15.716;2023-02-28T16:05:22;0.20;99.90
20147;DHT22;10234;50.856;15.716;2023-02-28T16:07:54;0.10;99.90
20147;DHT22;10234;50.856;15.716;2023-02-28T16:10:25;0.00;99.90
20147;DHT22;10234;50.856;15.716;2023-02-28T16:12:53;-0.10;99.90
20147;DHT22;10234;50.856;15.716;2023-02-28T16:15:23;-0.30;99.90
20147;DHT22;10234;50.856;15.716;2023-02-28T16:17:50;-0.50;99.90
20147;DHT22;10234;50.856;15.716;2023-02-28T16:20:19;-0.80;99.90
20147;DHT22;10234;50.856;15.716;2023-02-28T16:25:14;-0.70;99.90
20147;DHT22;10234;50.856;15.716;2023-02-28T16:27:43;-0.80;99.90
20147;DHT22;10234;50.856;15.716;2023-02-28T16:30:17;-1.00;99.90
20147;DHT22;10234;50.856;15.716;2023-02-28T16:37:39;-1.40;99.90
20147;DHT22;10234;50.856;15.716;2023-02-28T16:40:08;-1.70;99.90
20147;DHT22;10234;50.856;15.716;2023-02-28T16:42:37;-1.90;99.90
20147;DHT22;10234;50.856;15.716;2023-02-28T16:45:08;-1.80;99.90
20147;DHT22;10234;50.856;15.716;2023-02-28T16:47:38;-1.80;99.90
20147;DHT22;10234;50.856;15.716;2023-02-28T16:50:08;-1.50;99.90
20147;DHT22;10234;50.856;15.716;2023-02-28T16:52:38;-2.10;99.90
20147;DHT22;10234;50.856;15.716;2023-02-28T16:55:05;-2.20;99.90
20147;DHT22;10234;50.856;15.716;2023-02-28T17:17:17;-3.00;99.90
20147;DHT22;10234;50.856;15.716;2023-02-28T17:19:45;-3.20;99.90
20147;DHT22;10234;50.856;15.716;2023-02-28T17:22:12;-3.20;99.90
20147;DHT22;10234;50.856;15.716;2023-02-28T17:27:10;-3.30;99.90
20147;DHT22;10234;50.856;15.716;2023-02-28T17:34:32;-3.50;99.90
20147;DHT22;10234;50.856;15.716;2023-02-28T17:41:55;-3.50;99.90
20147;DHT22;10234;50.856;15.716;2023-02-28T17:44:22;-3.50;99.90
20147;DHT22;10234;50.856;15.716;2023-02-28T17:46:51;-3.60;99.90
20147;DHT22;10234;50.856;15.716;2023-02-28T17:49:18;-3.60;99.90
20147;DHT22;10234;50.856;15.716;2023-02-28T17:51:45;-3.60;99.90
20147;DHT22;10234;50.856;15.716;2023-02-28T17:54:14;-3.40;99.90
20147;DHT22;10234;50.856;15.716;2023-02-28T17:56:42;-0.20;99.90
20147;DHT22;10234;50.856;15.716;2023-02-28T17:59:10;-3.90;99.90
20147;DHT22;10234;50.856;15.716;2023-02-28T18:06:35;-4.00;99.90
20147;DHT22;10234;50.856;15.716;2023-02-28T18:09:18;-4.00;99.90
20147;DHT22;10234;50.856;15.716;2023-02-28T18:14:16;-4.10;99.90
20147;DHT22;10234;50.856;15.716;2023-02-28T18:16:43;-4.20;99.90
20147;DHT22;10234;50.856;15.716;2023-02-28T18:24:09;-4.30;99.90
20147;DHT22;10234;50.856;15.716;2023-02-28T18:26:38;-4.60;99.90
20147;DHT22;10234;50.856;15.716;2023-02-28T18:29:06;-4.40;99.90
20147;DHT22;10234;50.856;15.716;2023-02-28T18:43:53;-4.70;99.90
20147;DHT22;10234;50.856;15.716;2023-02-28T18:46:20;-4.70;99.90
20147;DHT22;10234;50.856;15.716;2023-02-28T18:51:16;-4.80;99.90
20147;DHT22;10234;50.856;15.716;2023-02-28T18:53:44;-4.60;99.90
20147;DHT22;10234;50.856;15.716;2023-02-28T18:56:13;-4.70;99.90
20147;DHT22;10234;50.856;15.716;2023-02-28T18:58:40;-5.10;99.90
20147;DHT22;10234;50.856;15.716;2023-02-28T19:01:16;-4.80;99.90
20147;DHT22;10234;50.856;15.716;2023-02-28T19:11:09;-5.00;99.90
20147;DHT22;10234;50.856;15.716;2023-02-28T19:13:36;-5.00;99.90
20147;DHT22;10234;50.856;15.716;2023-02-28T19:16:04;-5.10;99.90
20147;DHT22;10234;50.856;15.716;2023-02-28T19:18:33;-5.10;99.90
20147;DHT22;10234;50.856;15.716;2023-02-28T19:21:00;-5.30;99.90
20147;DHT22;10234;50.856;15.716;2023-02-28T19:25:54;-5.20;99.90
20147;DHT22;10234;50.856;15.716;2023-02-28T19:30:50;-5.30;99.90
20147;DHT22;10234;50.856;15.716;2023-02-28T19:33:18;-5.30;99.90
20147;DHT22;10234;50.856;15.716;2023-02-28T19:43:08;-5.50;99.90
20147;DHT22;10234;50.856;15.716;2023-02-28T19:45:36;-5.60;99.90
20147;DHT22;10234;50.856;15.716;2023-02-28T19:50:31;-5.30;99.90
20147;DHT22;10234;50.856;15.716;2023-02-28T19:52:59;-4.80;99.90
20147;DHT22;10234;50.856;15.716;2023-02-28T20:10:11;-5.60;99.90
20147;DHT22;10234;50.856;15.716;2023-02-28T20:15:06;-5.90;99.90
20147;DHT22;10234;50.856;15.716;2023-02-28T20:17:33;-6.10;99.90
20147;DHT22;10234;50.856;15.716;2023-02-28T20:20:00;-6.00;99.90
20147;DHT22;10234;50.856;15.716;2023-02-28T20:27:23;-6.30;99.90
20147;DHT22;10234;50.856;15.716;2023-02-28T20:44:35;-6.30;99.90
20147;DHT22;10234;50.856;15.716;2023-02-28T20:49:29;-6.40;99.90
20147;DHT22;10234;50.856;15.716;2023-02-28T20:54:23;-6.50;99.90